sensor_id;sensor_type;location;lat;lon;timestamp;P1;durP1;ratioP1;P2;durP2;ratioP2
72649;SDS011;61467;50.674;4.618;2023-12-04T00:02:21;10.80;;;3.92;;
72649;SDS011;61467;50.674;4.618;2023-12-04T00:04:48;11.40;;;4.50;;
72649;SDS011;61467;50.674;4.618;2023-12-04T00:07:15;11.13;;;3.65;;
72649;SDS011;61467;50.674;4.618;2023-12-04T00:09:42;9.40;;;3.90;;
72649;SDS011;61467;50.674;4.618;2023-12-04T00:12:09;11.50;;;4.20;;
72649;SDS011;61467;50.674;4.618;2023-12-04T00:14:36;9.85;;;3.97;;
72649;SDS011;61467;50.674;4.618;2023-12-04T00:17:03;10.13;;;3.97;;
72649;SDS011;61467;50.674;4.618;2023-12-04T00:19:31;10.57;;;3.70;;
72649;SDS011;61467;50.674;4.618;2023-12-04T00:21:58;10.03;;;3.33;;
72649;SDS011;61467;50.674;4.618;2023-12-04T00:24:25;10.60;;;4.18;;
72649;SDS011;61467;50.674;4.618;2023-12-04T00:26:52;11.45;;;4.72;;
72649;SDS011;61467;50.674;4.618;2023-12-04T00:29:19;10.75;;;4.07;;
72649;SDS011;61467;50.674;4.618;2023-12-04T00:31:46;9.70;;;4.10;;
72649;SDS011;61467;50.674;4.618;2023-12-04T00:34:13;12.10;;;3.87;;
72649;SDS011;61467;50.674;4.618;2023-12-04T00:36:41;11.40;;;4.15;;
72649;SDS011;61467;50.674;4.618;2023-12-04T00:39:08;12.50;;;4.90;;
72649;SDS011;61467;50.674;4.618;2023-12-04T00:41:35;9.60;;;3.60;;
72649;SDS011;61467;50.674;4.618;2023-12-04T00:44:02;10.48;;;4.32;;
72649;SDS011;61467;50.674;4.618;2023-12-04T00:46:28;11.10;;;3.67;;
72649;SDS011;61467;50.674;4.618;2023-12-04T00:48:55;10.05;;;4.00;;
72649;SDS011;61467;50.674;4.618;2023-12-04T00:51:22;11.68;;;4.07;;
72649;SDS011;61467;50.674;4.618;2023-12-04T00:53:52;10.32;;;4.05;;
72649;SDS011;61467;50.674;4.618;2023-12-04T00:56:20;12.18;;;4.47;;
72649;SDS011;61467;50.674;4.618;2023-12-04T00:58:47;10.33;;;3.43;;
72649;SDS011;61467;50.674;4.618;2023-12-04T01:01:14;9.98;;;3.83;;
72649;SDS011;61467;50.674;4.618;2023-12-04T01:03:41;10.38;;;4.20;;
72649;SDS011;61467;50.674;4.618;2023-12-04T01:06:08;9.70;;;3.58;;
72649;SDS011;61467;50.674;4.618;2023-12-04T01:08:46;11.68;;;4.22;;
72649;SDS011;61467;50.674;4.618;2023-12-04T01:11:15;10.37;;;3.83;;
72649;SDS011;61467;50.674;4.618;2023-12-04T01:13:44;11.60;;;4.10;;
72649;SDS011;61467;50.674;4.618;2023-12-04T01:16:11;10.65;;;4.30;;
72649;SDS011;61467;50.674;4.618;2023-12-04T01:18:38;10.52;;;3.85;;
72649;SDS011;61467;50.674;4.618;2023-12-04T01:21:06;10.45;;;3.78;;
72649;SDS011;61467;50.674;4.618;2023-12-04T01:23:34;11.30;;;3.70;;
72649;SDS011;61467;50.674;4.618;2023-12-04T01:26:01;11.25;;;4.28;;
72649;SDS011;61467;50.674;4.618;2023-12-04T01:28:29;9.63;;;3.67;;
72649;SDS011;61467;50.674;4.618;2023-12-04T01:30:56;9.65;;;3.83;;
72649;SDS011;61467;50.674;4.618;2023-12-04T01:33:23;11.93;;;4.13;;
72649;SDS011;61467;50.674;4.618;2023-12-04T01:35:50;10.63;;;4.10;;
72649;SDS011;61467;50.674;4.618;2023-12-04T01:38:17;9.98;;;3.70;;
72649;SDS011;61467;50.674;4.618;2023-12-04T01:40:44;10.07;;;4.55;;
72649;SDS011;61467;50.674;4.618;2023-12-04T01:43:12;9.90;;;3.92;;
72649;SDS011;61467;50.674;4.618;2023-12-04T01:45:41;10.45;;;3.97;;
72649;SDS011;61467;50.674;4.618;2023-12-04T01:48:08;10.90;;;3.93;;
72649;SDS011;61467;50.674;4.618;2023-12-04T01:50:35;10.57;;;4.00;;
72649;SDS011;61467;50.674;4.618;2023-12-04T01:53:02;10.00;;;3.80;;
72649;SDS011;61467;50.674;4.618;2023-12-04T01:55:29;10.38;;;3.80;;
72649;SDS011;61467;50.674;4.618;2023-12-04T01:57:58;11.00;;;3.83;;
72649;SDS011;61467;50.674;4.618;2023-12-04T02:00:26;10.40;;;3.47;;
72649;SDS011;61467;50.674;4.618;2023-12-04T02:02:55;10.40;;;4.18;;
72649;SDS011;61467;50.674;4.618;2023-12-04T02:05:22;11.32;;;3.95;;
72649;SDS011;61467;50.674;4.618;2023-12-04T02:07:53;9.68;;;3.83;;
72649;SDS011;61467;50.674;4.618;2023-12-04T02:10:21;9.95;;;3.72;;
72649;SDS011;61467;50.674;4.618;2023-12-04T02:12:48;11.63;;;3.60;;
72649;SDS011;61467;50.674;4.618;2023-12-04T02:15:15;9.73;;;4.13;;
72649;SDS011;61467;50.674;4.618;2023-12-04T02:17:42;10.32;;;3.78;;
72649;SDS011;61467;50.674;4.618;2023-12-04T02:20:13;9.68;;;3.80;;
72649;SDS011;61467;50.674;4.618;2023-12-04T02:22:40;10.02;;;3.75;;
72649;SDS011;61467;50.674;4.618;2023-12-04T02:25:09;10.90;;;3.63;;
72649;SDS011;61467;50.674;4.618;2023-12-04T02:27:38;11.65;;;4.05;;
72649;SDS011;61467;50.674;4.618;2023-12-04T02:30:11;9.15;;;3.55;;
72649;SDS011;61467;50.674;4.618;2023-12-04T02:32:42;9.25;;;3.53;;
72649;SDS011;61467;50.674;4.618;2023-12-04T02:35:12;10.32;;;4.00;;
72649;SDS011;61467;50.674;4.618;2023-12-04T02:37:41;9.43;;;3.73;;
72649;SDS011;61467;50.674;4.618;2023-12-04T02:40:10;10.90;;;4.05;;
72649;SDS011;61467;50.674;4.618;2023-12-04T02:42:38;8.43;;;3.30;;
72649;SDS011;61467;50.674;4.618;2023-12-04T02:45:06;9.35;;;4.20;;
72649;SDS011;61467;50.674;4.618;2023-12-04T02:47:33;8.95;;;3.80;;
72649;SDS011;61467;50.674;4.618;2023-12-04T02:50:00;9.53;;;3.70;;
72649;SDS011;61467;50.674;4.618;2023-12-04T02:52:27;9.15;;;3.83;;
72649;SDS011;61467;50.674;4.618;2023-12-04T02:54:54;8.65;;;3.33;;
72649;SDS011;61467;50.674;4.618;2023-12-04T02:57:22;8.85;;;3.53;;
72649;SDS011;61467;50.674;4.618;2023-12-04T02:59:49;8.45;;;3.67;;
72649;SDS011;61467;50.674;4.618;2023-12-04T03:02:16;9.43;;;3.70;;
72649;SDS011;61467;50.674;4.618;2023-12-04T03:04:43;11.60;;;4.30;;
72649;SDS011;61467;50.674;4.618;2023-12-04T03:07:11;9.27;;;3.90;;
72649;SDS011;61467;50.674;4.618;2023-12-04T03:09:38;10.52;;;3.67;;
72649;SDS011;61467;50.674;4.618;2023-12-04T03:12:05;9.23;;;3.83;;
72649;SDS011;61467;50.674;4.618;2023-12-04T03:14:34;9.33;;;3.37;;
72649;SDS011;61467;50.674;4.618;2023-12-04T03:17:02;9.40;;;3.35;;
72649;SDS011;61467;50.674;4.618;2023-12-04T03:19:31;11.27;;;4.05;;
72649;SDS011;61467;50.674;4.618;2023-12-04T03:21:58;8.95;;;3.20;;
72649;SDS011;61467;50.674;4.618;2023-12-04T03:24:25;9.43;;;3.83;;
72649;SDS011;61467;50.674;4.618;2023-12-04T03:26:52;8.87;;;3.60;;
72649;SDS011;61467;50.674;4.618;2023-12-04T03:29:19;10.15;;;3.28;;
72649;SDS011;61467;50.674;4.618;2023-12-04T03:31:47;8.63;;;3.70;;
72649;SDS011;61467;50.674;4.618;2023-12-04T03:34:14;10.82;;;3.47;;
72649;SDS011;61467;50.674;4.618;2023-12-04T03:36:41;9.27;;;3.70;;
72649;SDS011;61467;50.674;4.618;2023-12-04T03:39:08;9.63;;;3.50;;
72649;SDS011;61467;50.674;4.618;2023-12-04T03:41:35;9.98;;;4.25;;
72649;SDS011;61467;50.674;4.618;2023-12-04T03:44:02;8.77;;;3.25;;
72649;SDS011;61467;50.674;4.618;2023-12-04T03:46:29;10.23;;;3.97;;
72649;SDS011;61467;50.674;4.618;2023-12-04T03:48:57;10.60;;;3.63;;
72649;SDS011;61467;50.674;4.618;2023-12-04T03:51:24;9.43;;;3.50;;
72649;SDS011;61467;50.674;4.618;2023-12-04T03:53:51;7.85;;;3.40;;
72649;SDS011;61467;50.674;4.618;2023-12-04T03:56:17;8.55;;;3.38;;
72649;SDS011;61467;50.674;4.618;2023-12-04T03:58:44;9.20;;;3.33;;
72649;SDS011;61467;50.674;4.618;2023-12-04T04:01:11;11.35;;;4.10;;
72649;SDS011;61467;50.674;4.618;2023-12-04T04:03:38;9.47;;;3.90;;
72649;SDS011;61467;50.674;4.618;2023-12-04T04:06:07;9.60;;;3.75;;
72649;SDS011;61467;50.674;4.618;2023-12-04T04:08:37;8.90;;;3.75;;
72649;SDS011;61467;50.674;4.618;2023-12-04T04:11:05;8.93;;;3.80;;
72649;SDS011;61467;50.674;4.618;2023-12-04T04:13:32;10.02;;;3.55;;
72649;SDS011;61467;50.674;4.618;2023-12-04T04:15:59;9.60;;;3.50;;
72649;SDS011;61467;50.674;4.618;2023-12-04T04:18:26;8.52;;;3.28;;
72649;SDS011;61467;50.674;4.618;2023-12-04T04:20:53;8.63;;;3.03;;
72649;SDS011;61467;50.674;4.618;2023-12-04T04:23:21;9.20;;;3.28;;
72649;SDS011;61467;50.674;4.618;2023-12-04T04:25:48;8.60;;;2.97;;
72649;SDS011;61467;50.674;4.618;2023-12-04T04:28:15;8.93;;;3.50;;
72649;SDS011;61467;50.674;4.618;2023-12-04T04:30:42;9.23;;;3.15;;
72649;SDS011;61467;50.674;4.618;2023-12-04T04:33:08;9.05;;;3.33;;
72649;SDS011;61467;50.674;4.618;2023-12-04T04:35:36;9.65;;;3.67;;
72649;SDS011;61467;50.674;4.618;2023-12-04T04:38:03;9.15;;;3.30;;
72649;SDS011;61467;50.674;4.618;2023-12-04T04:40:31;8.13;;;3.40;;
72649;SDS011;61467;50.674;4.618;2023-12-04T04:42:58;7.88;;;3.38;;
72649;SDS011;61467;50.674;4.618;2023-12-04T04:45:25;8.00;;;3.35;;
72649;SDS011;61467;50.674;4.618;2023-12-04T04:47:52;9.13;;;3.33;;
72649;SDS011;61467;50.674;4.618;2023-12-04T04:50:19;8.82;;;3.53;;
72649;SDS011;61467;50.674;4.618;2023-12-04T04:52:46;7.80;;;2.97;;
72649;SDS011;61467;50.674;4.618;2023-12-04T04:55:13;7.93;;;3.25;;
72649;SDS011;61467;50.674;4.618;2023-12-04T04:57:41;9.20;;;3.53;;
72649;SDS011;61467;50.674;4.618;2023-12-04T05:00:08;9.27;;;3.42;;
72649;SDS011;61467;50.674;4.618;2023-12-04T05:02:35;10.80;;;3.08;;
72649;SDS011;61467;50.674;4.618;2023-12-04T05:05:03;8.60;;;3.10;;
72649;SDS011;61467;50.674;4.618;2023-12-04T05:07:30;10.10;;;3.67;;
72649;SDS011;61467;50.674;4.618;2023-12-04T05:09:57;8.73;;;3.13;;
72649;SDS011;61467;50.674;4.618;2023-12-04T05:12:27;7.93;;;3.00;;
72649;SDS011;61467;50.674;4.618;2023-12-04T05:14:55;7.88;;;3.53;;
72649;SDS011;61467;50.674;4.618;2023-12-04T05:17:22;8.30;;;3.00;;
72649;SDS011;61467;50.674;4.618;2023-12-04T05:19:48;8.13;;;2.75;;
72649;SDS011;61467;50.674;4.618;2023-12-04T05:22:16;9.10;;;3.53;;
72649;SDS011;61467;50.674;4.618;2023-12-04T05:24:42;7.80;;;3.38;;
72649;SDS011;61467;50.674;4.618;2023-12-04T05:27:09;7.03;;;2.85;;
72649;SDS011;61467;50.674;4.618;2023-12-04T05:29:36;8.13;;;3.20;;
72649;SDS011;61467;50.674;4.618;2023-12-04T05:32:04;8.68;;;3.50;;
72649;SDS011;61467;50.674;4.618;2023-12-04T05:34:31;8.32;;;3.28;;
72649;SDS011;61467;50.674;4.618;2023-12-04T05:37:00;9.02;;;3.40;;
72649;SDS011;61467;50.674;4.618;2023-12-04T05:39:27;8.38;;;3.13;;
72649;SDS011;61467;50.674;4.618;2023-12-04T05:41:54;7.23;;;2.83;;
72649;SDS011;61467;50.674;4.618;2023-12-04T05:44:20;6.90;;;3.13;;
72649;SDS011;61467;50.674;4.618;2023-12-04T05:46:48;9.40;;;3.70;;
72649;SDS011;61467;50.674;4.618;2023-12-04T05:49:16;7.80;;;3.33;;
72649;SDS011;61467;50.674;4.618;2023-12-04T05:51:43;9.30;;;3.47;;
72649;SDS011;61467;50.674;4.618;2023-12-04T05:54:09;7.53;;;3.40;;
72649;SDS011;61467;50.674;4.618;2023-12-04T05:56:36;8.32;;;3.60;;
72649;SDS011;61467;50.674;4.618;2023-12-04T05:59:03;7.82;;;3.22;;
72649;SDS011;61467;50.674;4.618;2023-12-04T06:01:30;8.27;;;2.88;;
72649;SDS011;61467;50.674;4.618;2023-12-04T06:03:57;8.00;;;3.08;;
72649;SDS011;61467;50.674;4.618;2023-12-04T06:06:25;7.80;;;3.10;;
72649;SDS011;61467;50.674;4.618;2023-12-04T06:08:52;8.55;;;3.25;;
72649;SDS011;61467;50.674;4.618;2023-12-04T06:11:23;8.68;;;3.47;;
72649;SDS011;61467;50.674;4.618;2023-12-04T06:13:50;7.35;;;2.78;;
72649;SDS011;61467;50.674;4.618;2023-12-04T06:16:17;8.60;;;3.13;;
72649;SDS011;61467;50.674;4.618;2023-12-04T06:18:43;7.63;;;3.10;;
72649;SDS011;61467;50.674;4.618;2023-12-04T06:21:13;7.97;;;2.95;;
72649;SDS011;61467;50.674;4.618;2023-12-04T06:23:42;7.82;;;3.20;;
72649;SDS011;61467;50.674;4.618;2023-12-04T06:26:10;8.07;;;2.90;;
72649;SDS011;61467;50.674;4.618;2023-12-04T06:28:38;7.68;;;3.60;;
72649;SDS011;61467;50.674;4.618;2023-12-04T06:31:06;8.40;;;3.30;;
72649;SDS011;61467;50.674;4.618;2023-12-04T06:33:34;9.07;;;3.10;;
72649;SDS011;61467;50.674;4.618;2023-12-04T06:36:01;8.23;;;3.33;;
72649;SDS011;61467;50.674;4.618;2023-12-04T06:38:29;8.60;;;3.20;;
72649;SDS011;61467;50.674;4.618;2023-12-04T06:41:01;8.13;;;3.92;;
72649;SDS011;61467;50.674;4.618;2023-12-04T06:43:30;7.90;;;3.57;;
72649;SDS011;61467;50.674;4.618;2023-12-04T06:45:58;9.55;;;3.72;;
72649;SDS011;61467;50.674;4.618;2023-12-04T06:48:25;8.30;;;3.45;;
72649;SDS011;61467;50.674;4.618;2023-12-04T06:50:52;8.45;;;3.47;;
72649;SDS011;61467;50.674;4.618;2023-12-04T06:53:19;9.77;;;3.53;;
72649;SDS011;61467;50.674;4.618;2023-12-04T06:55:46;9.57;;;3.83;;
72649;SDS011;61467;50.674;4.618;2023-12-04T06:58:14;8.55;;;3.45;;
72649;SDS011;61467;50.674;4.618;2023-12-04T07:00:41;8.85;;;4.00;;
72649;SDS011;61467;50.674;4.618;2023-12-04T07:03:08;8.93;;;3.10;;
72649;SDS011;61467;50.674;4.618;2023-12-04T07:05:35;9.00;;;3.38;;
72649;SDS011;61467;50.674;4.618;2023-12-04T07:08:02;10.27;;;3.83;;
72649;SDS011;61467;50.674;4.618;2023-12-04T07:10:29;9.32;;;3.65;;
72649;SDS011;61467;50.674;4.618;2023-12-04T07:12:55;9.93;;;3.95;;
72649;SDS011;61467;50.674;4.618;2023-12-04T07:15:23;9.93;;;3.85;;
72649;SDS011;61467;50.674;4.618;2023-12-04T07:17:50;9.90;;;3.80;;
72649;SDS011;61467;50.674;4.618;2023-12-04T07:20:17;7.97;;;3.10;;
72649;SDS011;61467;50.674;4.618;2023-12-04T07:22:44;9.32;;;3.45;;
72649;SDS011;61467;50.674;4.618;2023-12-04T07:25:13;10.07;;;3.67;;
72649;SDS011;61467;50.674;4.618;2023-12-04T07:27:41;9.77;;;4.13;;
72649;SDS011;61467;50.674;4.618;2023-12-04T07:30:09;8.15;;;3.28;;
72649;SDS011;61467;50.674;4.618;2023-12-04T07:32:38;8.07;;;3.17;;
72649;SDS011;61467;50.674;4.618;2023-12-04T07:35:05;10.57;;;4.20;;
72649;SDS011;61467;50.674;4.618;2023-12-04T07:37:33;10.10;;;3.30;;
72649;SDS011;61467;50.674;4.618;2023-12-04T07:40:00;8.80;;;3.53;;
72649;SDS011;61467;50.674;4.618;2023-12-04T07:42:27;9.10;;;3.67;;
72649;SDS011;61467;50.674;4.618;2023-12-04T07:44:55;10.90;;;4.10;;
72649;SDS011;61467;50.674;4.618;2023-12-04T07:47:22;7.82;;;3.00;;
72649;SDS011;61467;50.674;4.618;2023-12-04T07:49:50;9.20;;;3.80;;
72649;SDS011;61467;50.674;4.618;2023-12-04T07:52:17;8.18;;;3.50;;
72649;SDS011;61467;50.674;4.618;2023-12-04T07:54:44;10.45;;;3.75;;
72649;SDS011;61467;50.674;4.618;2023-12-04T07:57:11;8.57;;;3.10;;
72649;SDS011;61467;50.674;4.618;2023-12-04T07:59:38;8.00;;;3.38;;
72649;SDS011;61467;50.674;4.618;2023-12-04T08:02:05;9.93;;;3.95;;
72649;SDS011;61467;50.674;4.618;2023-12-04T08:04:31;9.38;;;3.90;;
72649;SDS011;61467;50.674;4.618;2023-12-04T08:06:59;9.70;;;3.75;;
72649;SDS011;61467;50.674;4.618;2023-12-04T08:09:26;9.40;;;3.77;;
72649;SDS011;61467;50.674;4.618;2023-12-04T08:11:53;9.48;;;3.13;;
72649;SDS011;61467;50.674;4.618;2023-12-04T08:14:20;8.23;;;3.47;;
72649;SDS011;61467;50.674;4.618;2023-12-04T08:16:47;9.52;;;3.88;;
72649;SDS011;61467;50.674;4.618;2023-12-04T08:19:14;8.30;;;3.38;;
72649;SDS011;61467;50.674;4.618;2023-12-04T08:21:42;7.87;;;3.20;;
72649;SDS011;61467;50.674;4.618;2023-12-04T08:24:10;9.10;;;3.25;;
72649;SDS011;61467;50.674;4.618;2023-12-04T08:26:37;7.90;;;3.50;;
72649;SDS011;61467;50.674;4.618;2023-12-04T08:29:04;8.75;;;3.97;;
72649;SDS011;61467;50.674;4.618;2023-12-04T08:31:30;11.10;;;3.83;;
72649;SDS011;61467;50.674;4.618;2023-12-04T08:33:57;8.03;;;3.53;;
72649;SDS011;61467;50.674;4.618;2023-12-04T08:36:24;9.57;;;3.50;;
72649;SDS011;61467;50.674;4.618;2023-12-04T08:38:51;9.45;;;4.30;;
72649;SDS011;61467;50.674;4.618;2023-12-04T08:41:19;8.55;;;3.28;;
72649;SDS011;61467;50.674;4.618;2023-12-04T08:43:46;8.85;;;3.90;;
72649;SDS011;61467;50.674;4.618;2023-12-04T08:46:13;9.00;;;3.70;;
72649;SDS011;61467;50.674;4.618;2023-12-04T08:48:40;8.02;;;3.22;;
72649;SDS011;61467;50.674;4.618;2023-12-04T08:51:07;9.60;;;3.75;;
72649;SDS011;61467;50.674;4.618;2023-12-04T08:53:34;8.23;;;3.80;;
72649;SDS011;61467;50.674;4.618;2023-12-04T08:56:02;8.10;;;3.72;;
72649;SDS011;61467;50.674;4.618;2023-12-04T08:58:30;8.63;;;3.83;;
72649;SDS011;61467;50.674;4.618;2023-12-04T09:00:57;8.93;;;3.70;;
72649;SDS011;61467;50.674;4.618;2023-12-04T09:03:24;8.60;;;3.78;;
72649;SDS011;61467;50.674;4.618;2023-12-04T09:05:51;10.25;;;4.32;;
72649;SDS011;61467;50.674;4.618;2023-12-04T09:08:17;9.43;;;4.07;;
72649;SDS011;61467;50.674;4.618;2023-12-04T09:10:44;10.40;;;4.23;;
72649;SDS011;61467;50.674;4.618;2023-12-04T09:13:12;9.40;;;4.03;;
72649;SDS011;61467;50.674;4.618;2023-12-04T09:15:41;8.60;;;4.10;;
72649;SDS011;61467;50.674;4.618;2023-12-04T09:18:09;9.52;;;4.30;;
72649;SDS011;61467;50.674;4.618;2023-12-04T09:20:36;9.07;;;4.10;;
72649;SDS011;61467;50.674;4.618;2023-12-04T09:23:03;8.67;;;3.67;;
72649;SDS011;61467;50.674;4.618;2023-12-04T09:25:30;10.27;;;4.00;;
72649;SDS011;61467;50.674;4.618;2023-12-04T09:27:56;9.55;;;3.60;;
72649;SDS011;61467;50.674;4.618;2023-12-04T09:30:23;9.88;;;3.80;;
72649;SDS011;61467;50.674;4.618;2023-12-04T09:32:51;8.85;;;3.90;;
72649;SDS011;61467;50.674;4.618;2023-12-04T09:35:18;9.80;;;3.77;;
72649;SDS011;61467;50.674;4.618;2023-12-04T09:37:45;10.70;;;4.22;;
72649;SDS011;61467;50.674;4.618;2023-12-04T09:40:14;8.25;;;3.63;;
72649;SDS011;61467;50.674;4.618;2023-12-04T09:42:41;11.02;;;4.03;;
72649;SDS011;61467;50.674;4.618;2023-12-04T09:45:08;9.73;;;3.90;;
72649;SDS011;61467;50.674;4.618;2023-12-04T09:47:36;9.33;;;3.93;;
72649;SDS011;61467;50.674;4.618;2023-12-04T09:50:05;9.90;;;4.13;;
72649;SDS011;61467;50.674;4.618;2023-12-04T09:52:34;9.23;;;3.92;;
72649;SDS011;61467;50.674;4.618;2023-12-04T09:55:01;12.85;;;4.20;;
72649;SDS011;61467;50.674;4.618;2023-12-04T09:57:30;9.40;;;4.50;;
72649;SDS011;61467;50.674;4.618;2023-12-04T09:59:57;9.80;;;4.13;;
72649;SDS011;61467;50.674;4.618;2023-12-04T10:02:26;10.35;;;4.32;;
72649;SDS011;61467;50.674;4.618;2023-12-04T10:04:53;11.68;;;4.70;;
72649;SDS011;61467;50.674;4.618;2023-12-04T10:07:22;10.63;;;4.50;;
72649;SDS011;61467;50.674;4.618;2023-12-04T10:09:51;9.35;;;4.50;;
72649;SDS011;61467;50.674;4.618;2023-12-04T10:12:18;9.70;;;4.00;;
72649;SDS011;61467;50.674;4.618;2023-12-04T10:14:50;12.15;;;4.75;;
72649;SDS011;61467;50.674;4.618;2023-12-04T10:17:32;10.30;;;4.82;;
72649;SDS011;61467;50.674;4.618;2023-12-04T10:20:05;10.98;;;5.15;;
72649;SDS011;61467;50.674;4.618;2023-12-04T10:22:38;12.32;;;4.97;;
72649;SDS011;61467;50.674;4.618;2023-12-04T10:25:15;9.87;;;4.30;;
72649;SDS011;61467;50.674;4.618;2023-12-04T10:27:43;11.30;;;4.88;;
72649;SDS011;61467;50.674;4.618;2023-12-04T10:30:20;11.07;;;4.78;;
72649;SDS011;61467;50.674;4.618;2023-12-04T10:32:49;10.23;;;4.25;;
72649;SDS011;61467;50.674;4.618;2023-12-04T10:35:25;10.57;;;4.53;;
72649;SDS011;61467;50.674;4.618;2023-12-04T10:37:55;10.83;;;4.20;;
72649;SDS011;61467;50.674;4.618;2023-12-04T10:40:23;12.25;;;4.63;;
72649;SDS011;61467;50.674;4.618;2023-12-04T10:42:49;9.68;;;4.78;;
72649;SDS011;61467;50.674;4.618;2023-12-04T10:45:16;11.43;;;4.28;;
72649;SDS011;61467;50.674;4.618;2023-12-04T10:47:47;12.77;;;5.00;;
72649;SDS011;61467;50.674;4.618;2023-12-04T10:50:16;9.60;;;4.27;;
72649;SDS011;61467;50.674;4.618;2023-12-04T10:52:44;9.98;;;4.22;;
72649;SDS011;61467;50.674;4.618;2023-12-04T10:55:13;9.10;;;4.30;;
72649;SDS011;61467;50.674;4.618;2023-12-04T10:57:40;9.98;;;4.68;;
72649;SDS011;61467;50.674;4.618;2023-12-04T11:00:10;9.90;;;4.30;;
72649;SDS011;61467;50.674;4.618;2023-12-04T11:02:42;11.83;;;4.43;;
72649;SDS011;61467;50.674;4.618;2023-12-04T11:05:14;9.95;;;4.47;;
72649;SDS011;61467;50.674;4.618;2023-12-04T11:07:46;10.55;;;4.13;;
72649;SDS011;61467;50.674;4.618;2023-12-04T11:10:18;10.20;;;4.38;;
72649;SDS011;61467;50.674;4.618;2023-12-04T11:12:48;10.13;;;4.18;;
72649;SDS011;61467;50.674;4.618;2023-12-04T11:15:19;9.40;;;4.07;;
72649;SDS011;61467;50.674;4.618;2023-12-04T11:17:51;9.27;;;4.05;;
72649;SDS011;61467;50.674;4.618;2023-12-04T11:20:24;8.73;;;3.58;;
72649;SDS011;61467;50.674;4.618;2023-12-04T11:22:55;9.20;;;3.72;;
72649;SDS011;61467;50.674;4.618;2023-12-04T11:25:23;10.15;;;4.07;;
72649;SDS011;61467;50.674;4.618;2023-12-04T11:27:54;9.33;;;3.63;;
72649;SDS011;61467;50.674;4.618;2023-12-04T11:30:22;8.23;;;3.53;;
72649;SDS011;61467;50.674;4.618;2023-12-04T11:32:49;8.32;;;3.67;;
72649;SDS011;61467;50.674;4.618;2023-12-04T11:35:17;8.95;;;3.90;;
72649;SDS011;61467;50.674;4.618;2023-12-04T11:37:45;10.18;;;4.07;;
72649;SDS011;61467;50.674;4.618;2023-12-04T11:40:14;8.77;;;3.70;;
72649;SDS011;61467;50.674;4.618;2023-12-04T11:42:43;10.38;;;4.35;;
72649;SDS011;61467;50.674;4.618;2023-12-04T11:45:10;9.85;;;4.72;;
72649;SDS011;61467;50.674;4.618;2023-12-04T11:47:50;8.50;;;3.80;;
72649;SDS011;61467;50.674;4.618;2023-12-04T11:50:18;9.68;;;4.07;;
72649;SDS011;61467;50.674;4.618;2023-12-04T11:52:46;8.83;;;3.93;;
72649;SDS011;61467;50.674;4.618;2023-12-04T11:55:15;7.60;;;3.33;;
72649;SDS011;61467;50.674;4.618;2023-12-04T11:57:45;7.70;;;3.45;;
72649;SDS011;61467;50.674;4.618;2023-12-04T12:00:13;7.40;;;3.47;;
72649;SDS011;61467;50.674;4.618;2023-12-04T12:02:47;8.77;;;3.75;;
72649;SDS011;61467;50.674;4.618;2023-12-04T12:05:26;7.77;;;3.40;;
72649;SDS011;61467;50.674;4.618;2023-12-04T12:07:53;7.40;;;3.45;;
72649;SDS011;61467;50.674;4.618;2023-12-04T12:10:22;7.28;;;3.38;;
72649;SDS011;61467;50.674;4.618;2023-12-04T12:12:50;7.13;;;3.13;;
72649;SDS011;61467;50.674;4.618;2023-12-04T12:15:18;8.05;;;3.70;;
72649;SDS011;61467;50.674;4.618;2023-12-04T12:17:46;7.30;;;3.00;;
72649;SDS011;61467;50.674;4.618;2023-12-04T12:20:14;7.95;;;3.22;;
72649;SDS011;61467;50.674;4.618;2023-12-04T12:22:41;10.63;;;3.80;;
72649;SDS011;61467;50.674;4.618;2023-12-04T12:25:10;7.20;;;3.08;;
72649;SDS011;61467;50.674;4.618;2023-12-04T12:27:39;7.47;;;3.50;;
72649;SDS011;61467;50.674;4.618;2023-12-04T12:30:07;9.10;;;3.67;;
72649;SDS011;61467;50.674;4.618;2023-12-04T12:32:36;7.20;;;2.70;;
72649;SDS011;61467;50.674;4.618;2023-12-04T12:35:03;7.57;;;3.28;;
72649;SDS011;61467;50.674;4.618;2023-12-04T12:37:32;6.28;;;2.90;;
72649;SDS011;61467;50.674;4.618;2023-12-04T12:40:00;7.10;;;3.17;;
72649;SDS011;61467;50.674;4.618;2023-12-04T12:42:30;9.87;;;3.67;;
72649;SDS011;61467;50.674;4.618;2023-12-04T12:44:59;7.20;;;2.80;;
72649;SDS011;61467;50.674;4.618;2023-12-04T12:47:29;7.82;;;3.55;;
72649;SDS011;61467;50.674;4.618;2023-12-04T12:49:56;6.55;;;2.42;;
72649;SDS011;61467;50.674;4.618;2023-12-04T12:52:23;6.78;;;2.80;;
72649;SDS011;61467;50.674;4.618;2023-12-04T12:54:49;7.33;;;2.67;;
72649;SDS011;61467;50.674;4.618;2023-12-04T12:57:18;8.38;;;3.10;;
72649;SDS011;61467;50.674;4.618;2023-12-04T12:59:44;7.35;;;2.67;;
72649;SDS011;61467;50.674;4.618;2023-12-04T13:02:11;7.40;;;3.33;;
72649;SDS011;61467;50.674;4.618;2023-12-04T13:04:41;6.82;;;3.10;;
72649;SDS011;61467;50.674;4.618;2023-12-04T13:07:08;6.60;;;2.70;;
72649;SDS011;61467;50.674;4.618;2023-12-04T13:09:36;6.78;;;3.10;;
72649;SDS011;61467;50.674;4.618;2023-12-04T13:12:04;6.65;;;2.85;;
72649;SDS011;61467;50.674;4.618;2023-12-04T13:14:32;6.93;;;2.80;;
72649;SDS011;61467;50.674;4.618;2023-12-04T13:17:00;7.03;;;2.80;;
72649;SDS011;61467;50.674;4.618;2023-12-04T13:19:27;6.53;;;2.93;;
72649;SDS011;61467;50.674;4.618;2023-12-04T13:21:58;6.47;;;2.60;;
72649;SDS011;61467;50.674;4.618;2023-12-04T13:24:24;7.00;;;2.83;;
72649;SDS011;61467;50.674;4.618;2023-12-04T13:26:52;8.65;;;3.20;;
72649;SDS011;61467;50.674;4.618;2023-12-04T13:29:19;8.43;;;3.53;;
72649;SDS011;61467;50.674;4.618;2023-12-04T13:31:48;8.87;;;2.90;;
72649;SDS011;61467;50.674;4.618;2023-12-04T13:34:15;6.43;;;2.40;;
72649;SDS011;61467;50.674;4.618;2023-12-04T13:36:42;6.45;;;2.88;;
72649;SDS011;61467;50.674;4.618;2023-12-04T13:39:11;7.25;;;2.65;;
72649;SDS011;61467;50.674;4.618;2023-12-04T13:41:45;6.90;;;2.92;;
72649;SDS011;61467;50.674;4.618;2023-12-04T13:44:29;6.30;;;2.33;;
72649;SDS011;61467;50.674;4.618;2023-12-04T13:46:58;7.47;;;2.40;;
72649;SDS011;61467;50.674;4.618;2023-12-04T13:49:25;6.38;;;2.55;;
72649;SDS011;61467;50.674;4.618;2023-12-04T13:51:52;6.43;;;2.35;;
72649;SDS011;61467;50.674;4.618;2023-12-04T13:54:20;6.28;;;2.38;;
72649;SDS011;61467;50.674;4.618;2023-12-04T13:56:53;8.17;;;2.97;;
72649;SDS011;61467;50.674;4.618;2023-12-04T13:59:21;7.20;;;2.47;;
72649;SDS011;61467;50.674;4.618;2023-12-04T14:01:49;6.63;;;2.75;;
72649;SDS011;61467;50.674;4.618;2023-12-04T14:04:16;7.80;;;2.80;;
72649;SDS011;61467;50.674;4.618;2023-12-04T14:06:44;7.72;;;3.00;;
72649;SDS011;61467;50.674;4.618;2023-12-04T14:09:11;8.37;;;2.63;;
72649;SDS011;61467;50.674;4.618;2023-12-04T14:11:43;6.13;;;2.53;;
72649;SDS011;61467;50.674;4.618;2023-12-04T14:14:10;7.55;;;3.33;;
72649;SDS011;61467;50.674;4.618;2023-12-04T14:16:38;5.90;;;2.35;;
72649;SDS011;61467;50.674;4.618;2023-12-04T14:19:05;6.03;;;2.42;;
72649;SDS011;61467;50.674;4.618;2023-12-04T14:21:32;7.73;;;2.87;;
72649;SDS011;61467;50.674;4.618;2023-12-04T14:23:59;6.88;;;2.85;;
72649;SDS011;61467;50.674;4.618;2023-12-04T14:26:26;7.35;;;2.50;;
72649;SDS011;61467;50.674;4.618;2023-12-04T14:28:54;6.97;;;2.88;;
72649;SDS011;61467;50.674;4.618;2023-12-04T14:31:23;9.07;;;3.40;;
72649;SDS011;61467;50.674;4.618;2023-12-04T14:33:50;6.47;;;2.53;;
72649;SDS011;61467;50.674;4.618;2023-12-04T14:36:18;7.30;;;2.90;;
72649;SDS011;61467;50.674;4.618;2023-12-04T14:38:44;6.40;;;2.70;;
72649;SDS011;61467;50.674;4.618;2023-12-04T14:41:13;6.38;;;2.63;;
72649;SDS011;61467;50.674;4.618;2023-12-04T14:43:40;7.30;;;3.05;;
72649;SDS011;61467;50.674;4.618;2023-12-04T14:46:09;7.47;;;2.93;;
72649;SDS011;61467;50.674;4.618;2023-12-04T14:48:37;7.32;;;3.10;;